createdAt,value
2018-10-21T00:00:32.972Z,1020.68
2018-10-21T00:01:13.411Z,1020.68
2018-10-21T00:01:53.855Z,1020.73
2018-10-21T00:02:34.248Z,1020.75
2018-10-21T00:03:14.755Z,1020.73
2018-10-21T00:03:55.064Z,1020.8
2018-10-21T00:04:35.497Z,1020.79
2018-10-21T00:05:15.938Z,1020.81
2018-10-21T00:05:56.309Z,1020.82
2018-10-21T00:06:36.743Z,1020.88
2018-10-21T00:07:17.183Z,1020.85
2018-10-21T00:07:57.661Z,1020.82
2018-10-21T00:08:38.083Z,1020.82
2018-10-21T00:09:18.477Z,1020.82
2018-10-21T00:09:58.877Z,1020.8
2018-10-21T00:10:39.332Z,1020.84
2018-10-21T00:11:19.870Z,1020.83
2018-10-21T00:12:00.203Z,1020.8
2018-10-21T00:12:40.620Z,1020.81
2018-10-21T00:13:20.996Z,1020.79
2018-10-21T00:14:01.413Z,1020.77
2018-10-21T00:14:41.851Z,1020.77
2018-10-21T00:15:22.498Z,1020.78
2018-10-21T00:16:02.708Z,1020.76
2018-10-21T00:16:43.190Z,1020.79
2018-10-21T00:17:23.536Z,1020.8
2018-10-21T00:18:03.929Z,1020.75
2018-10-21T00:18:44.297Z,1020.77
2018-10-21T00:19:26.307Z,1020.74
2018-10-21T00:20:06.676Z,1020.69
2018-10-21T00:20:47.159Z,1020.72
2018-10-21T00:21:27.531Z,1020.72
2018-10-21T00:22:07.896Z,1020.73
2018-10-21T00:22:50.092Z,1020.71
2018-10-21T00:23:30.434Z,1020.66
2018-10-21T00:24:10.913Z,1020.68
2018-10-21T00:24:51.320Z,1020.65
2018-10-21T00:25:31.715Z,1020.66
2018-10-21T00:26:14.872Z,1020.64
2018-10-21T00:26:55.248Z,1020.67
2018-10-21T00:27:35.648Z,1020.62
2018-10-21T00:28:16.034Z,1020.66
2018-10-21T00:28:56.418Z,1020.63
2018-10-21T00:29:36.815Z,1020.62
2018-10-21T00:30:17.196Z,1020.65
2018-10-21T00:30:57.587Z,1020.65
2018-10-21T00:31:38.023Z,1020.61
2018-10-21T00:32:18.428Z,1020.61
2018-10-21T00:32:58.861Z,1020.62
2018-10-21T00:33:39.233Z,1020.6
2018-10-21T00:34:19.709Z,1020.58
2018-10-21T00:35:00.045Z,1020.58
2018-10-21T00:35:40.420Z,1020.56
2018-10-21T00:36:20.886Z,1020.57
2018-10-21T00:37:01.281Z,1020.57
2018-10-21T00:37:41.652Z,1020.55
2018-10-21T00:38:22.054Z,1020.54
2018-10-21T00:39:02.591Z,1020.56
2018-10-21T00:39:42.886Z,1020.58
2018-10-21T00:40:23.308Z,1020.53
2018-10-21T00:41:03.755Z,1020.55
2018-10-21T00:41:44.140Z,1020.52
2018-10-21T00:42:24.569Z,1020.52
2018-10-21T00:43:04.956Z,1020.52
2018-10-21T00:43:45.364Z,1020.49
2018-10-21T00:44:25.793Z,1020.51
2018-10-21T00:45:06.256Z,1020.45
2018-10-21T00:45:46.554Z,1020.46
2018-10-21T00:46:26.928Z,1020.44
2018-10-21T00:47:07.380Z,1020.43
2018-10-21T00:47:47.765Z,1020.41
2018-10-21T00:48:28.172Z,1020.47
2018-10-21T00:49:08.587Z,1020.44
2018-10-21T00:49:48.994Z,1020.48
2018-10-21T00:50:29.396Z,1020.49
2018-10-21T00:51:09.845Z,1020.46
2018-10-21T00:51:50.249Z,1020.5
2018-10-21T00:52:30.635Z,1020.44
2018-10-21T00:53:11.025Z,1020.49
2018-10-21T00:53:51.483Z,1020.48
2018-10-21T00:54:31.952Z,1020.49
2018-10-21T00:55:12.332Z,1020.44
2018-10-21T00:55:52.698Z,1020.47
2018-10-21T00:56:33.126Z,1020.49
2018-10-21T00:57:13.611Z,1020.48
2018-10-21T00:57:53.979Z,1020.5
2018-10-21T00:58:34.369Z,1020.52
2018-10-21T00:59:14.788Z,1020.52
2018-10-21T00:59:55.202Z,1020.56
2018-10-21T01:00:35.644Z,1020.55
2018-10-21T01:01:16.036Z,1020.56
2018-10-21T01:01:56.508Z,1020.56
2018-10-21T01:02:36.906Z,1020.53
2018-10-21T01:03:17.367Z,1020.57
2018-10-21T01:03:57.766Z,1020.56
2018-10-21T01:04:38.152Z,1020.6
2018-10-21T01:05:18.526Z,1020.62
2018-10-21T01:05:58.979Z,1020.64
2018-10-21T01:06:39.336Z,1020.66
2018-10-21T01:07:19.801Z,1020.65
2018-10-21T01:08:00.157Z,1020.68
2018-10-21T01:08:40.609Z,1020.66
2018-10-21T01:09:20.991Z,1020.62
2018-10-21T01:10:01.456Z,1020.65
2018-10-21T01:10:41.842Z,1020.66
2018-10-21T01:11:22.305Z,1020.68
2018-10-21T01:12:03.256Z,1020.66
2018-10-21T01:12:43.698Z,1020.66
2018-10-21T01:13:24.095Z,1020.62
2018-10-21T01:14:04.444Z,1020.63
2018-10-21T01:14:44.870Z,1020.58
2018-10-21T01:15:25.303Z,1020.6
2018-10-21T01:16:05.710Z,1020.59
2018-10-21T01:16:46.066Z,1020.6
2018-10-21T01:17:26.485Z,1020.64
2018-10-21T01:18:06.894Z,1020.63
2018-10-21T01:18:47.324Z,1020.59
2018-10-21T01:19:27.747Z,1020.61
2018-10-21T01:20:08.094Z,1020.58
2018-10-21T01:20:48.506Z,1020.59
2018-10-21T01:21:28.934Z,1020.58
2018-10-21T01:22:09.344Z,1020.58
2018-10-21T01:22:49.744Z,1020.6
2018-10-21T01:23:30.176Z,1020.56
2018-10-21T01:24:10.556Z,1020.58
2018-10-21T01:24:50.927Z,1020.58
2018-10-21T01:25:31.365Z,1020.58
2018-10-21T01:26:11.768Z,1020.57
2018-10-21T01:26:52.168Z,1020.54
2018-10-21T01:27:32.611Z,1020.52
2018-10-21T01:28:12.999Z,1020.48
2018-10-21T01:28:53.465Z,1020.47
2018-10-21T01:29:33.846Z,1020.48
2018-10-21T01:30:14.249Z,1020.51
2018-10-21T01:30:54.700Z,1020.51
2018-10-21T01:31:35.166Z,1020.52
2018-10-21T01:32:15.610Z,1020.51
2018-10-21T01:32:56.057Z,1020.53
2018-10-21T01:33:36.464Z,1020.52
2018-10-21T01:34:16.881Z,1020.53
2018-10-21T01:34:57.257Z,1020.48
2018-10-21T01:35:37.643Z,1020.48
2018-10-21T01:36:18.305Z,1020.49
2018-10-21T01:36:58.600Z,1020.48
2018-10-21T01:37:38.949Z,1020.52
2018-10-21T01:38:19.428Z,1020.54
2018-10-21T01:38:59.775Z,1020.53
2018-10-21T01:39:40.111Z,1020.54
2018-10-21T01:40:20.582Z,1020.54
2018-10-21T01:41:00.931Z,1020.55
2018-10-21T01:41:41.316Z,1020.56
2018-10-21T01:42:21.696Z,1020.56
2018-10-21T01:43:05.050Z,1020.56
2018-10-21T01:43:45.511Z,1020.59
2018-10-21T01:44:25.902Z,1020.6
2018-10-21T01:45:06.339Z,1020.59
2018-10-21T01:45:46.780Z,1020.59
2018-10-21T01:46:27.106Z,1020.58
2018-10-21T01:47:07.565Z,1020.58
2018-10-21T01:47:48.015Z,1020.59
2018-10-21T01:48:28.319Z,1020.59
2018-10-21T01:49:08.675Z,1020.58
2018-10-21T01:49:49.130Z,1020.57
2018-10-21T01:50:29.605Z,1020.53
2018-10-21T01:51:10.121Z,1020.54
2018-10-21T01:51:50.372Z,1020.51
2018-10-21T01:52:30.845Z,1020.53
2018-10-21T01:53:11.219Z,1020.57
2018-10-21T01:53:51.589Z,1020.56
2018-10-21T01:54:32.013Z,1020.57
2018-10-21T01:55:12.396Z,1020.61
2018-10-21T01:55:52.794Z,1020.63
2018-10-21T01:56:33.297Z,1020.6
2018-10-21T01:57:13.696Z,1020.62
2018-10-21T01:57:54.008Z,1020.65
2018-10-21T01:58:34.457Z,1020.64
2018-10-21T01:59:14.833Z,1020.63
2018-10-21T01:59:55.211Z,1020.64
2018-10-21T02:00:35.639Z,1020.62
2018-10-21T02:01:16.053Z,1020.65
2018-10-21T02:01:56.542Z,1020.62
2018-10-21T02:02:36.848Z,1020.61
2018-10-21T02:03:17.494Z,1020.62
2018-10-21T02:03:57.722Z,1020.65
2018-10-21T02:04:38.137Z,1020.62
2018-10-21T02:05:18.515Z,1020.6
2018-10-21T02:05:58.985Z,1020.62
2018-10-21T02:06:39.384Z,1020.64
2018-10-21T02:07:19.744Z,1020.61
2018-10-21T02:08:00.134Z,1020.64
2018-10-21T02:08:40.620Z,1020.64
2018-10-21T02:09:20.966Z,1020.66
2018-10-21T02:10:01.448Z,1020.61
2018-10-21T02:10:41.795Z,1020.63
2018-10-21T02:11:22.215Z,1020.6
2018-10-21T02:13:52.060Z,1020.61
2018-10-21T02:14:32.474Z,1020.62
2018-10-21T02:15:13.382Z,1020.65
2018-10-21T02:17:30.665Z,1020.6
2018-10-21T02:19:25.541Z,1020.59
2018-10-21T02:20:05.771Z,1020.56
2018-10-21T02:20:46.120Z,1020.55
2018-10-21T02:21:26.511Z,1020.57
2018-10-21T02:22:06.866Z,1020.52
2018-10-21T02:22:47.315Z,1020.54
2018-10-21T02:23:27.704Z,1020.53
2018-10-21T02:24:08.121Z,1020.57
2018-10-21T02:24:48.501Z,1020.53
2018-10-21T02:25:28.929Z,1020.55
2018-10-21T02:26:09.311Z,1020.51
2018-10-21T02:26:49.776Z,1020.51
2018-10-21T02:27:30.209Z,1020.53
2018-10-21T02:28:10.671Z,1020.52
2018-10-21T02:28:50.988Z,1020.49
2018-10-21T02:29:31.369Z,1020.51
2018-10-21T02:30:11.807Z,1020.48
2018-10-21T02:30:52.166Z,1020.49
2018-10-21T02:31:32.600Z,1020.48
2018-10-21T02:32:13.012Z,1020.5
2018-10-21T02:32:53.437Z,1020.48
2018-10-21T02:33:33.922Z,1020.49
2018-10-21T02:34:14.212Z,1020.45
2018-10-21T02:34:54.561Z,1020.42
2018-10-21T02:35:35.028Z,1020.49
2018-10-21T02:36:15.377Z,1020.44
2018-10-21T02:36:55.782Z,1020.46
2018-10-21T02:37:36.128Z,1020.42
2018-10-21T02:38:16.585Z,1020.49
2018-10-21T02:38:57.058Z,1020.47
2018-10-21T02:39:37.452Z,1020.48
2018-10-21T02:40:17.881Z,1020.49
2018-10-21T02:40:58.281Z,1020.49
2018-10-21T02:41:38.714Z,1020.46
2018-10-21T02:42:19.122Z,1020.45
2018-10-21T02:42:59.477Z,1020.52
2018-10-21T02:43:39.886Z,1020.52
2018-10-21T02:44:20.297Z,1020.57
2018-10-21T02:45:00.753Z,1020.57
2018-10-21T02:45:41.135Z,1020.58
2018-10-21T02:46:22.074Z,1020.6
2018-10-21T02:47:02.469Z,1020.59
2018-10-21T02:47:42.867Z,1020.59
2018-10-21T02:48:23.281Z,1020.6
2018-10-21T02:49:03.766Z,1020.59
2018-10-21T02:49:44.118Z,1020.61
2018-10-21T02:50:24.545Z,1020.61
2018-10-21T02:51:05.007Z,1020.61
2018-10-21T02:51:48.249Z,1020.58
2018-10-21T02:52:28.660Z,1020.59
2018-10-21T02:53:09.122Z,1020.62
2018-10-21T02:53:49.520Z,1020.57
2018-10-21T02:54:29.985Z,1020.56
2018-10-21T02:55:10.423Z,1020.55
2018-10-21T02:55:50.820Z,1020.54
2018-10-21T02:56:31.258Z,1020.51
2018-10-21T02:57:11.774Z,1020.48
2018-10-21T02:57:52.004Z,1020.46
2018-10-21T02:58:32.466Z,1020.47
2018-10-21T02:59:12.913Z,1020.45
2018-10-21T02:59:53.315Z,1020.44
2018-10-21T03:00:33.704Z,1020.42
2018-10-21T03:01:14.126Z,1020.43
2018-10-21T03:01:54.551Z,1020.4
2018-10-21T03:02:34.958Z,1020.41
2018-10-21T03:03:15.398Z,1020.41
2018-10-21T03:03:55.765Z,1020.41
2018-10-21T03:04:36.214Z,1020.43
2018-10-21T03:05:16.597Z,1020.44
2018-10-21T03:05:57.004Z,1020.46
2018-10-21T03:06:37.375Z,1020.47
2018-10-21T03:07:17.893Z,1020.44
2018-10-21T03:07:58.179Z,1020.42
2018-10-21T03:08:38.615Z,1020.4
2018-10-21T03:09:19.137Z,1020.46
2018-10-21T03:09:59.451Z,1020.47
2018-10-21T03:10:39.972Z,1020.48
2018-10-21T03:11:20.342Z,1020.47
2018-10-21T03:12:00.757Z,1020.44
2018-10-21T03:12:41.165Z,1020.42
2018-10-21T03:13:21.539Z,1020.42
2018-10-21T03:14:01.953Z,1020.43
2018-10-21T03:14:42.334Z,1020.42
2018-10-21T03:15:22.761Z,1020.4
2018-10-21T03:16:03.173Z,1020.38
2018-10-21T03:16:43.561Z,1020.36
2018-10-21T03:17:23.983Z,1020.44
2018-10-21T03:18:07.409Z,1020.38
2018-10-21T03:18:47.694Z,1020.39
2018-10-21T03:19:28.241Z,1020.4
2018-10-21T03:20:08.578Z,1020.36
2018-10-21T03:20:49.000Z,1020.38
2018-10-21T03:21:29.409Z,1020.4
2018-10-21T03:22:09.853Z,1020.34
2018-10-21T03:22:50.218Z,1020.34
2018-10-21T03:23:30.594Z,1020.34
2018-10-21T03:24:10.994Z,1020.36
2018-10-21T03:24:51.396Z,1020.32
2018-10-21T03:25:31.754Z,1020.33
2018-10-21T03:26:12.186Z,1020.35
2018-10-21T03:26:52.577Z,1020.33
2018-10-21T03:27:32.939Z,1020.32
2018-10-21T03:28:13.348Z,1020.29
2018-10-21T03:28:53.790Z,1020.25
2018-10-21T03:29:34.158Z,1020.27
2018-10-21T03:30:14.607Z,1020.24
2018-10-21T03:30:55.018Z,1020.22
2018-10-21T03:31:35.356Z,1020.21
2018-10-21T03:32:15.833Z,1020.24
2018-10-21T03:32:56.274Z,1020.22
2018-10-21T03:33:36.758Z,1020.22
2018-10-21T03:34:17.073Z,1020.13
2018-10-21T03:34:57.531Z,1020.18
2018-10-21T03:35:37.926Z,1020.15
2018-10-21T03:36:18.341Z,1020.13
2018-10-21T03:36:58.764Z,1020.1
2018-10-21T03:37:39.150Z,1020.13
2018-10-21T03:38:19.527Z,1020.1
2018-10-21T03:39:00.003Z,1020.15
2018-10-21T03:39:40.341Z,1020.15
2018-10-21T03:40:20.786Z,1020.17
2018-10-21T03:41:01.162Z,1020.09
2018-10-21T03:41:41.590Z,1020.13
2018-10-21T03:42:22.128Z,1020.08
2018-10-21T03:43:02.423Z,1020.13
2018-10-21T03:43:42.849Z,1020.14
2018-10-21T03:44:23.206Z,1020.12
2018-10-21T03:45:03.628Z,1020.16
2018-10-21T03:45:44.095Z,1020.19
2018-10-21T03:46:24.429Z,1020.19
2018-10-21T03:47:04.846Z,1020.14
2018-10-21T03:47:45.224Z,1020.18
2018-10-21T03:48:25.731Z,1020.15
2018-10-21T03:49:06.081Z,1020.2
2018-10-21T03:49:46.523Z,1020.22
2018-10-21T03:50:26.903Z,1020.22
2018-10-21T03:51:07.393Z,1020.18
2018-10-21T03:51:47.765Z,1020.18
2018-10-21T03:52:28.169Z,1020.17
2018-10-21T03:53:08.518Z,1020.2
2018-10-21T03:53:48.984Z,1020.17
2018-10-21T03:54:29.390Z,1020.21
2018-10-21T03:55:09.788Z,1020.15
2018-10-21T03:55:50.227Z,1020.18
2018-10-21T03:56:30.653Z,1020.2
2018-10-21T03:57:11.017Z,1020.23
2018-10-21T03:57:51.370Z,1020.2
2018-10-21T03:58:31.795Z,1020.2
2018-10-21T03:59:12.185Z,1020.21
2018-10-21T03:59:52.559Z,1020.21
2018-10-21T04:00:33.003Z,1020.19
2018-10-21T04:01:13.414Z,1020.19
2018-10-21T04:01:53.819Z,1020.2
2018-10-21T04:02:34.220Z,1020.19
2018-10-21T04:03:14.674Z,1020.19
2018-10-21T04:03:55.081Z,1020.19
2018-10-21T04:04:35.452Z,1020.23
2018-10-21T04:05:15.942Z,1020.21
2018-10-21T04:05:56.442Z,1020.18
2018-10-21T04:06:37.829Z,1020.2
2018-10-21T04:07:18.224Z,1020.2
2018-10-21T04:07:58.631Z,1020.17
2018-10-21T04:08:39.028Z,1020.18
2018-10-21T04:09:19.480Z,1020.17
2018-10-21T04:09:59.860Z,1020.17
2018-10-21T04:10:40.304Z,1020.13
2018-10-21T04:11:20.674Z,1020.11
2018-10-21T04:12:01.052Z,1020.09
2018-10-21T04:12:41.441Z,1020.07
2018-10-21T04:13:21.878Z,1020.08
2018-10-21T04:14:02.336Z,1020.04
2018-10-21T04:14:42.715Z,1020.02
2018-10-21T04:15:23.145Z,1020.02
2018-10-21T04:16:03.551Z,1019.99
2018-10-21T04:16:43.948Z,1019.94
2018-10-21T04:17:24.349Z,1019.89
2018-10-21T04:18:04.775Z,1019.91
2018-10-21T04:18:45.153Z,1019.86
2018-10-21T04:19:25.513Z,1019.87
2018-10-21T04:20:05.982Z,1019.88
2018-10-21T04:20:46.400Z,1019.89
2018-10-21T04:21:26.704Z,1019.88
2018-10-21T04:22:07.225Z,1019.93
2018-10-21T04:22:47.539Z,1019.9
2018-10-21T04:23:28.007Z,1019.87
2018-10-21T04:24:08.348Z,1019.93
2018-10-21T04:24:48.806Z,1019.91
2018-10-21T04:25:29.234Z,1019.88
2018-10-21T04:26:09.631Z,1019.96
2018-10-21T04:26:50.065Z,1019.93
2018-10-21T04:27:30.421Z,1019.98
2018-10-21T05:08:17.901Z,1019.74
2018-10-21T05:09:05.704Z,1019.71
2018-10-21T05:09:54.271Z,1019.65
2018-10-21T05:10:40.081Z,1019.66
2018-10-21T05:11:20.325Z,1019.66
2018-10-21T05:12:00.796Z,1019.66
2018-10-21T05:12:41.218Z,1019.64
2018-10-21T05:13:21.562Z,1019.64
2018-10-21T05:14:01.996Z,1019.66
2018-10-21T05:14:42.425Z,1019.68
2018-10-21T05:15:22.798Z,1019.64
2018-10-21T05:16:03.278Z,1019.68
2018-10-21T05:16:43.706Z,1019.62
2018-10-21T05:17:24.051Z,1019.61
2018-10-21T05:18:04.445Z,1019.61
2018-10-21T05:18:44.876Z,1019.6
2018-10-21T05:19:26.898Z,1019.62
2018-10-21T05:20:07.313Z,1019.62
2018-10-21T05:20:47.720Z,1019.58
2018-10-21T05:21:28.185Z,1019.57
2018-10-21T05:22:08.710Z,1019.58
2018-10-21T05:22:48.976Z,1019.59
2018-10-21T05:23:29.405Z,1019.59
2018-10-21T05:24:09.819Z,1019.57
2018-10-21T05:24:50.216Z,1019.6
2018-10-21T05:25:30.694Z,1019.58
2018-10-21T05:26:11.012Z,1019.58
2018-10-21T05:26:51.421Z,1019.64
2018-10-21T05:27:31.816Z,1019.61
2018-10-21T05:28:12.370Z,1019.6
2018-10-21T05:28:52.742Z,1019.63
2018-10-21T05:29:33.077Z,1019.6
2018-10-21T05:30:13.501Z,1019.62
2018-10-21T05:30:53.904Z,1019.61
2018-10-21T05:31:34.321Z,1019.63
2018-10-21T05:32:16.631Z,1019.62
2018-10-21T05:32:57.113Z,1019.58
2018-10-21T05:33:37.535Z,1019.59
2018-10-21T05:34:17.889Z,1019.58
2018-10-21T05:34:58.284Z,1019.62
2018-10-21T05:35:38.712Z,1019.6
2018-10-21T05:36:19.154Z,1019.57
2018-10-21T05:36:59.506Z,1019.62
2018-10-21T05:37:39.960Z,1019.59
2018-10-21T05:38:20.339Z,1019.62
2018-10-21T05:39:00.755Z,1019.63
2018-10-21T05:39:41.147Z,1019.57
2018-10-21T05:40:21.579Z,1019.63
2018-10-21T05:41:01.990Z,1019.57
2018-10-21T05:41:42.351Z,1019.58
2018-10-21T05:42:22.904Z,1019.58
2018-10-21T05:43:03.333Z,1019.56
2018-10-21T05:43:43.687Z,1019.61
2018-10-21T05:44:24.192Z,1019.58
2018-10-21T05:45:04.545Z,1019.6
2018-10-21T05:45:45.001Z,1019.58
2018-10-21T05:46:25.413Z,1019.56
2018-10-21T05:47:05.826Z,1019.58
2018-10-21T05:47:46.221Z,1019.57
2018-10-21T05:48:26.621Z,1019.62
2018-10-21T05:49:07.031Z,1019.64
2018-10-21T05:49:47.438Z,1019.61
2018-10-21T05:50:27.840Z,1019.62
2018-10-21T05:51:08.277Z,1019.63
2018-10-21T05:51:48.677Z,1019.62
2018-10-21T05:52:29.086Z,1019.63
2018-10-21T05:53:09.535Z,1019.62
2018-10-21T05:53:49.899Z,1019.62
2018-10-21T05:54:30.325Z,1019.64
2018-10-21T05:55:10.791Z,1019.64
2018-10-21T05:55:51.186Z,1019.58
2018-10-21T05:56:31.551Z,1019.62
2018-10-21T05:57:11.957Z,1019.64
2018-10-21T05:57:52.432Z,1019.64
2018-10-21T05:58:32.737Z,1019.62
2018-10-21T05:59:14.976Z,1019.64
2018-10-21T05:59:55.383Z,1019.66
2018-10-21T06:00:35.815Z,1019.64
2018-10-21T06:01:16.193Z,1019.66
2018-10-21T06:01:56.611Z,1019.66
2018-10-21T06:02:37.039Z,1019.69
2018-10-21T06:03:17.480Z,1019.68
2018-10-21T06:03:57.979Z,1019.67
2018-10-21T06:04:38.287Z,1019.67
2018-10-21T06:05:20.509Z,1019.73
2018-10-21T06:06:00.913Z,1019.69
2018-10-21T06:06:41.294Z,1019.7
2018-10-21T06:07:21.691Z,1019.73
2018-10-21T06:08:02.061Z,1019.71
2018-10-21T06:08:42.538Z,1019.71
2018-10-21T06:09:22.964Z,1019.73
2018-10-21T06:10:07.207Z,1019.69
2018-10-21T06:10:47.488Z,1019.69
2018-10-21T06:11:27.980Z,1019.73
2018-10-21T06:12:08.373Z,1019.69
2018-10-21T06:12:49.202Z,1019.71
2018-10-21T06:13:29.689Z,1019.67
2018-10-21T06:14:10.154Z,1019.69
2018-10-21T06:14:51.494Z,1019.71
2018-10-21T06:15:31.372Z,1019.69
2018-10-21T06:16:11.870Z,1019.73
2018-10-21T06:16:53.205Z,1019.69
2018-10-21T06:17:33.543Z,1019.73
2018-10-21T06:18:15.229Z,1019.76
2018-10-21T06:18:55.356Z,1019.77
2018-10-21T06:19:35.689Z,1019.73
2018-10-21T06:20:16.178Z,1019.79
2018-10-21T06:20:56.469Z,1019.76
2018-10-21T06:21:36.960Z,1019.76
2018-10-21T06:22:17.391Z,1019.81
2018-10-21T06:22:57.817Z,1019.77
2018-10-21T06:23:38.239Z,1019.81
2018-10-21T06:24:18.560Z,1019.79
2018-10-21T06:24:59.152Z,1019.79
2018-10-21T06:25:39.408Z,1019.8
2018-10-21T06:26:19.781Z,1019.8
2018-10-21T06:27:00.222Z,1019.8
2018-10-21T06:27:40.748Z,1019.76
2018-10-21T06:28:21.102Z,1019.82
2018-10-21T06:29:01.496Z,1019.79
2018-10-21T06:29:41.852Z,1019.82
2018-10-21T06:30:22.254Z,1019.82
2018-10-21T06:34:31.318Z,1019.83
2018-10-21T06:35:17.847Z,1019.83
2018-10-21T06:35:57.869Z,1019.85
2018-10-21T06:36:38.331Z,1019.83
2018-10-21T06:38:57.907Z,1019.82
2018-10-21T06:39:42.591Z,1019.84
2018-10-21T06:40:22.671Z,1019.86
2018-10-21T06:41:03.015Z,1019.86
2018-10-21T06:41:43.429Z,1019.85
2018-10-21T06:42:23.849Z,1019.89
2018-10-21T06:43:04.308Z,1019.92
2018-10-21T06:43:44.734Z,1019.92
2018-10-21T06:44:25.124Z,1019.95
2018-10-21T06:45:05.546Z,1019.93
2018-10-21T06:45:49.355Z,1019.95
2018-10-21T06:48:22.333Z,1019.98
2018-10-21T06:49:02.093Z,1019.99
2018-10-21T06:49:42.490Z,1020.03
2018-10-21T06:51:40.506Z,1020.06
2018-10-21T06:52:24.486Z,1020.06
2018-10-21T06:53:06.922Z,1020.08
2018-10-21T06:56:20.463Z,1020.1
2018-10-21T06:57:00.957Z,1020.1
2018-10-21T06:57:41.272Z,1020.07
2018-10-21T06:58:21.655Z,1020.08
2018-10-21T06:59:02.038Z,1020.09
2018-10-21T07:01:29.695Z,1020.15
2018-10-21T07:02:10.146Z,1020.19
2018-10-21T07:03:03.414Z,1020.16
2018-10-21T07:03:43.795Z,1020.14
2018-10-21T07:04:24.362Z,1020.14
2018-10-21T07:05:04.727Z,1020.08
2018-10-21T07:05:45.074Z,1020.11
2018-10-21T07:06:25.504Z,1020.13
2018-10-21T07:07:05.903Z,1020.12
2018-10-21T07:07:50.673Z,1020.13
2018-10-21T07:08:31.084Z,1020.15
2018-10-21T07:09:11.466Z,1020.14
2018-10-21T07:09:51.881Z,1020.15
2018-10-21T07:10:32.329Z,1020.12
2018-10-21T07:11:13.944Z,1020.11
2018-10-21T07:11:54.324Z,1020.11
2018-10-21T07:12:34.764Z,1020.12
2018-10-21T07:13:15.170Z,1020.12
2018-10-21T07:13:55.665Z,1020.11
2018-10-21T07:14:35.998Z,1020.09
2018-10-21T07:15:17.225Z,1020.09
2018-10-21T07:15:57.918Z,1020.13
2018-10-21T07:16:38.500Z,1020.15
2018-10-21T07:17:20.592Z,1020.16
2018-10-21T07:18:01.020Z,1020.19
2018-10-21T07:18:58.730Z,1020.2
2018-10-21T07:19:39.055Z,1020.2
2018-10-21T07:20:19.381Z,1020.2
2018-10-21T07:20:59.769Z,1020.21
2018-10-21T07:21:40.169Z,1020.19
2018-10-21T07:23:39.921Z,1020.24
2018-10-21T07:24:20.758Z,1020.18
2018-10-21T07:25:01.328Z,1020.19
2018-10-21T07:25:41.642Z,1020.2
2018-10-21T07:26:22.491Z,1020.22
2018-10-21T07:27:08.687Z,1020.21
2018-10-21T07:27:49.150Z,1020.23
2018-10-21T07:28:29.570Z,1020.23
2018-10-21T07:29:09.929Z,1020.24
2018-10-21T07:29:50.308Z,1020.27
2018-10-21T07:30:30.787Z,1020.3
2018-10-21T07:31:11.175Z,1020.25
2018-10-21T07:31:51.865Z,1020.28
2018-10-21T07:32:32.058Z,1020.29
2018-10-21T07:33:12.524Z,1020.29
2018-10-21T07:33:52.939Z,1020.29
2018-10-21T07:34:35.016Z,1020.29
2018-10-21T07:35:15.415Z,1020.27
2018-10-21T07:35:55.884Z,1020.32
2018-10-21T07:36:36.784Z,1020.32
2018-10-21T07:40:29.668Z,1020.32
2018-10-21T07:41:10.027Z,1020.34
2018-10-21T07:41:50.264Z,1020.39
2018-10-21T07:42:33.661Z,1020.38
2018-10-21T07:43:13.975Z,1020.41
2018-10-21T07:43:54.561Z,1020.39
2018-10-21T07:47:03.007Z,1020.43
2018-10-21T07:47:43.383Z,1020.36
2018-10-21T07:48:23.760Z,1020.39
2018-10-21T07:49:05.229Z,1020.39
2018-10-21T07:49:46.119Z,1020.4
2018-10-21T07:50:26.356Z,1020.39
2018-10-21T07:51:06.703Z,1020.41
2018-10-21T07:51:47.105Z,1020.4
2018-10-21T07:52:28.845Z,1020.45
2018-10-21T07:53:09.276Z,1020.44
2018-10-21T07:53:49.680Z,1020.46
2018-10-21T07:55:42.370Z,1020.48
2018-10-21T07:56:22.563Z,1020.51
2018-10-21T07:57:03.009Z,1020.51
2018-10-21T07:57:47.580Z,1020.52
2018-10-21T07:58:25.025Z,1020.51
2018-10-21T08:01:52.346Z,1020.57
2018-10-21T08:02:41.441Z,1020.59
2018-10-21T08:03:21.743Z,1020.61
2018-10-21T08:04:02.419Z,1020.66
2018-10-21T08:04:43.177Z,1020.63
2018-10-21T08:05:23.681Z,1020.67
2018-10-21T08:06:04.390Z,1020.65
2018-10-21T08:06:44.813Z,1020.65
2018-10-21T08:07:25.964Z,1020.61
2018-10-21T08:08:07.357Z,1020.67
2018-10-21T08:08:47.845Z,1020.66
2018-10-21T08:09:28.285Z,1020.63
2018-10-21T08:10:08.695Z,1020.61
2018-10-21T08:10:49.075Z,1020.63
2018-10-21T08:11:29.453Z,1020.66
2018-10-21T08:12:13.783Z,1020.66
2018-10-21T08:12:54.259Z,1020.66
2018-10-21T08:13:34.637Z,1020.67
2018-10-21T08:14:16.523Z,1020.69
2018-10-21T08:14:57.293Z,1020.7
2018-10-21T08:15:38.573Z,1020.66
2018-10-21T08:16:21.685Z,1020.67
2018-10-21T08:17:02.095Z,1020.7
2018-10-21T08:17:42.587Z,1020.71
2018-10-21T08:18:23.021Z,1020.68
2018-10-21T08:19:03.443Z,1020.68
2018-10-21T08:19:43.815Z,1020.7
2018-10-21T08:20:24.275Z,1020.71
2018-10-21T08:21:05.361Z,1020.66
2018-10-21T08:21:45.777Z,1020.71
2018-10-21T08:22:27.277Z,1020.63
2018-10-21T08:23:07.743Z,1020.65
2018-10-21T08:23:48.670Z,1020.65
2018-10-21T08:24:29.483Z,1020.67
2018-10-21T08:25:09.891Z,1020.66
2018-10-21T08:25:50.972Z,1020.69
2018-10-21T08:26:31.307Z,1020.67
2018-10-21T08:27:11.779Z,1020.66
2018-10-21T08:27:52.102Z,1020.63
2018-10-21T08:28:33.462Z,1020.67
2018-10-21T08:29:13.829Z,1020.66
2018-10-21T08:29:54.350Z,1020.64
2018-10-21T08:30:34.689Z,1020.63
2018-10-21T08:31:15.136Z,1020.61
2018-10-21T08:31:55.597Z,1020.63
2018-10-21T08:32:36.135Z,1020.59
2018-10-21T08:33:18.213Z,1020.6
2018-10-21T08:33:58.104Z,1020.62
2018-10-21T08:34:38.505Z,1020.62
2018-10-21T08:35:19.559Z,1020.63
2018-10-21T08:36:00.015Z,1020.66
2018-10-21T08:36:40.590Z,1020.6
2018-10-21T08:37:21.036Z,1020.62
2018-10-21T08:38:03.301Z,1020.57
2018-10-21T08:38:43.795Z,1020.59
2018-10-21T08:39:24.146Z,1020.56
2018-10-21T08:40:05.283Z,1020.54
2018-10-21T08:40:45.442Z,1020.58
2018-10-21T08:41:25.870Z,1020.56
2018-10-21T08:42:06.293Z,1020.55
2018-10-21T08:42:47.086Z,1020.58
2018-10-21T08:43:27.621Z,1020.55
2018-10-21T08:44:08.425Z,1020.57
2018-10-21T08:44:49.168Z,1020.54
2018-10-21T08:47:08.903Z,1020.5
2018-10-21T08:47:51.391Z,1020.48
2018-10-21T08:48:33.753Z,1020.48
2018-10-21T08:49:14.253Z,1020.48
2018-10-21T08:49:54.814Z,1020.49
2018-10-21T08:50:35.254Z,1020.41
2018-10-21T08:51:15.630Z,1020.43
2018-10-21T08:51:56.111Z,1020.44
2018-10-21T08:52:36.711Z,1020.4
2018-10-21T08:53:17.293Z,1020.43
2018-10-21T08:53:57.636Z,1020.42
2018-10-21T08:54:38.056Z,1020.43
2018-10-21T08:55:18.517Z,1020.42
2018-10-21T08:55:59.191Z,1020.43
2018-10-21T08:56:39.575Z,1020.4
2018-10-21T08:57:19.995Z,1020.43
2018-10-21T09:02:10.064Z,1020.36
2018-10-21T09:02:51.190Z,1020.37
2018-10-21T09:03:31.630Z,1020.41
2018-10-21T09:04:12.021Z,1020.4
2018-10-21T09:04:52.396Z,1020.38
2018-10-21T09:05:32.811Z,1020.35
2018-10-21T09:06:13.280Z,1020.36
2018-10-21T09:06:53.717Z,1020.36
2018-10-21T09:07:34.083Z,1020.34
2018-10-21T09:08:14.541Z,1020.34
2018-10-21T09:08:55.279Z,1020.34
2018-10-21T09:09:35.697Z,1020.33
2018-10-21T09:10:16.244Z,1020.34
2018-10-21T09:10:57.403Z,1020.34
2018-10-21T09:11:38.208Z,1020.34
2018-10-21T09:12:18.830Z,1020.36
2018-10-21T09:12:59.210Z,1020.36
2018-10-21T09:13:39.623Z,1020.37
2018-10-21T09:14:20.016Z,1020.34
2018-10-21T09:15:02.078Z,1020.38
2018-10-21T09:15:42.576Z,1020.37
2018-10-21T09:16:22.944Z,1020.38
2018-10-21T09:17:03.288Z,1020.4
2018-10-21T09:17:43.692Z,1020.38
2018-10-21T09:18:24.941Z,1020.31
2018-10-21T09:19:09.164Z,1020.31
2018-10-21T09:19:50.208Z,1020.33
2018-10-21T09:20:30.523Z,1020.33
2018-10-21T09:21:10.944Z,1020.3
2018-10-21T09:21:51.428Z,1020.35
2018-10-21T09:22:33.584Z,1020.3
2018-10-21T09:23:14.007Z,1020.32
2018-10-21T09:23:55.564Z,1020.34
2018-10-21T09:24:37.595Z,1020.36
2018-10-21T09:25:18.117Z,1020.35
2018-10-21T09:25:58.437Z,1020.36
2018-10-21T09:28:15.213Z,1020.34
2018-10-21T09:28:55.489Z,1020.32